Terminal Aerodrome Forecast
Issued by NWS Caribou, ME

Home | Current Version | Previous Version | Text Only | Print | Product List | Glossary On
Versions: 1 2 3 4 5 6 7 8 9 10 11 12 13 14 15 16 17 18 19 20 21 22 23 24 25
000
FTUS41 KCAR 301129
TAFBGR
TAF
KBGR 301129Z 3012/3112 15004KT P6SM SCT250
     FM301800 17008KT P6SM SCT250
     FM310100 18006KT 3SM -RA BR SCT007 BKN050
     FM310300 18005KT 2SM BR SCT003 BKN015
     FM310600 21004KT 3/4SM BR SCT003=

USA.gov is the U.S. government's official web portal to all federal, state and local government web resources and services.